createdAt,value
2023-02-17T00:04:56.875Z,88.49
2023-02-17T00:10:01.628Z,88.81
2023-02-17T00:15:13.376Z,89.21
2023-02-17T00:20:17.386Z,89.25
2023-02-17T00:25:21.345Z,89.31
2023-02-17T00:30:25.164Z,89.60
2023-02-17T00:35:31.657Z,90.00
2023-02-17T00:40:35.488Z,89.28
2023-02-17T00:45:42.258Z,88.98
2023-02-17T00:50:46.729Z,88.72
2023-02-17T00:55:50.719Z,89.23
2023-02-17T01:01:01.782Z,89.75
2023-02-17T01:06:08.377Z,89.74
2023-02-17T01:11:24.709Z,89.40
2023-02-17T01:16:35.602Z,89.50
2023-02-17T01:21:40.036Z,89.29
2023-02-17T01:26:49.127Z,89.32
2023-02-17T01:31:53.430Z,89.88
2023-02-17T01:36:57.900Z,89.39
2023-02-17T01:42:04.077Z,89.29
2023-02-17T01:47:13.357Z,89.55
2023-02-17T01:52:23.746Z,89.83
2023-02-17T01:57:31.323Z,90.13
2023-02-17T02:02:38.048Z,89.90
2023-02-17T02:07:43.184Z,89.79
2023-02-17T02:12:50.127Z,89.69
2023-02-17T02:18:21.898Z,90.02
2023-02-17T02:23:47.937Z,89.92
2023-02-17T02:29:48.713Z,90.11
2023-02-17T02:35:02.150Z,90.06
2023-02-17T02:40:09.299Z,89.93
2023-02-17T02:45:14.428Z,89.88
2023-02-17T02:50:36.416Z,90.36
2023-02-17T02:56:29.397Z,90.02
2023-02-17T03:02:22.932Z,89.55
2023-02-17T03:07:40.322Z,89.85
2023-02-17T03:12:45.629Z,90.13
2023-02-17T03:17:49.530Z,90.38
2023-02-17T03:22:55.189Z,90.49
2023-02-17T03:28:04.377Z,90.56
2023-02-17T03:33:09.137Z,90.88
2023-02-17T03:38:13.048Z,91.32
2023-02-17T03:43:18.109Z,90.97
2023-02-17T03:48:33.119Z,90.69
2023-02-17T03:53:40.453Z,90.93
2023-02-17T03:58:44.402Z,90.62
2023-02-17T04:03:48.516Z,90.56
2023-02-17T04:08:56.412Z,90.89
2023-02-17T04:14:00.460Z,90.83
2023-02-17T04:19:04.384Z,90.56
2023-02-17T04:24:08.545Z,91.37
2023-02-17T04:29:12.316Z,90.94
2023-02-17T04:34:17.663Z,91.36
2023-02-17T04:39:22.161Z,91.41
2023-02-17T04:44:26.217Z,91.61
2023-02-17T04:49:31.205Z,91.65
2023-02-17T04:54:35.233Z,92.18
2023-02-17T04:59:40.904Z,92.34
2023-02-17T05:04:46.445Z,92.66
2023-02-17T05:09:50.693Z,92.58
2023-02-17T05:14:58.331Z,92.82
2023-02-17T05:20:09.276Z,92.97
2023-02-17T05:25:15.716Z,93.32
2023-02-17T05:30:20.089Z,93.76
2023-02-17T05:35:25.242Z,93.81
2023-02-17T05:40:35.337Z,94.23
2023-02-17T05:45:39.162Z,94.38
2023-02-17T05:50:46.131Z,94.41
2023-02-17T05:55:49.967Z,94.60
2023-02-17T06:00:54.088Z,94.90
2023-02-17T06:05:58.235Z,95.17
2023-02-17T06:11:02.355Z,94.98
2023-02-17T06:16:12.403Z,95.20
2023-02-17T06:21:16.264Z,95.57
2023-02-17T06:26:23.672Z,95.49
2023-02-17T06:31:30.560Z,95.89
2023-02-17T06:36:34.565Z,96.27
2023-02-17T06:41:38.543Z,96.71
2023-02-17T06:46:42.413Z,97.05
2023-02-17T06:51:52.215Z,97.57
2023-02-17T06:56:59.108Z,97.86
2023-02-17T07:02:05.941Z,98.32
2023-02-17T07:07:10.672Z,98.60
2023-02-17T07:12:14.642Z,98.85
2023-02-17T07:17:18.339Z,99.30
2023-02-17T07:22:22.181Z,99.48
2023-02-17T07:27:26.150Z,99.70
2023-02-17T07:32:32.856Z,99.51
2023-02-17T07:37:37.714Z,99.70
2023-02-17T07:42:41.527Z,99.78
2023-02-17T07:47:47.569Z,99.98
2023-02-17T07:52:51.779Z,100.00
2023-02-17T07:57:55.666Z,100.00
2023-02-17T08:02:59.732Z,100.00
2023-02-17T08:08:22.064Z,100.00
2023-02-17T08:13:28.503Z,100.00
2023-02-17T08:18:36.537Z,100.00
2023-02-17T08:23:43.330Z,100.00
2023-02-17T08:28:50.243Z,99.99
2023-02-17T08:33:54.357Z,100.00
2023-02-17T08:38:59.201Z,100.00
2023-02-17T08:44:07.282Z,100.00
2023-02-17T08:49:11.349Z,100.00
2023-02-17T08:54:16.125Z,99.98
2023-02-17T08:59:20.665Z,99.91
2023-02-17T09:04:25.023Z,99.85
2023-02-17T09:09:29.417Z,99.63
2023-02-17T09:14:33.760Z,99.52
2023-02-17T09:19:41.380Z,99.72
2023-02-17T09:24:47.552Z,99.66
2023-02-17T09:29:51.500Z,99.39
2023-02-17T09:34:55.659Z,99.28
2023-02-17T09:39:59.678Z,99.03
2023-02-17T09:45:12.841Z,99.00
2023-02-17T09:50:29.030Z,99.17
2023-02-17T09:55:50.521Z,99.10
2023-02-17T10:00:59.327Z,98.91
2023-02-17T10:06:19.689Z,98.85
2023-02-17T10:11:55.444Z,98.83
2023-02-17T10:17:27.937Z,99.11
2023-02-17T10:22:31.832Z,98.87
2023-02-17T10:28:11.342Z,98.70
2023-02-17T10:33:28.696Z,98.42
2023-02-17T10:38:54.984Z,98.07
2023-02-17T10:44:01.043Z,98.08
2023-02-17T10:49:07.134Z,97.97
2023-02-17T10:54:22.276Z,97.41
2023-02-17T10:59:47.441Z,96.96
2023-02-17T11:04:55.492Z,97.35
2023-02-17T11:10:02.429Z,97.53
2023-02-17T11:15:16.187Z,97.64
2023-02-17T11:20:40.393Z,97.46
2023-02-17T11:25:44.835Z,97.13
2023-02-17T11:30:55.087Z,97.20
2023-02-17T11:35:59.899Z,97.21
2023-02-17T11:41:07.340Z,97.30
2023-02-17T11:46:39.518Z,97.43
2023-02-17T11:52:05.261Z,96.94
2023-02-17T11:57:39.693Z,97.01
2023-02-17T12:03:25.625Z,96.83
2023-02-17T12:09:17.488Z,96.95
2023-02-17T12:14:59.033Z,96.99
2023-02-17T12:20:25.477Z,96.95
2023-02-17T12:25:36.204Z,96.59
2023-02-17T12:31:09.899Z,96.40
2023-02-17T12:36:17.712Z,95.87
2023-02-17T12:41:25.677Z,95.76
2023-02-17T12:46:35.677Z,95.81
2023-02-17T12:51:48.874Z,95.51
2023-02-17T12:57:22.063Z,95.65
2023-02-17T13:02:26.940Z,96.03
2023-02-17T13:08:00.807Z,96.32
2023-02-17T13:13:10.185Z,96.17
2023-02-17T13:18:32.294Z,96.84
2023-02-17T13:23:41.516Z,97.00
2023-02-17T13:28:46.203Z,97.14
2023-02-17T13:33:52.973Z,96.58
2023-02-17T13:39:01.410Z,96.38
2023-02-17T13:44:29.926Z,96.05
2023-02-17T13:49:35.690Z,95.79
2023-02-17T13:54:39.670Z,95.71
2023-02-17T13:59:43.743Z,95.76
2023-02-17T14:04:48.015Z,95.82
2023-02-17T14:09:55.283Z,96.10
2023-02-17T14:14:59.184Z,96.29
2023-02-17T14:20:04.679Z,96.35
2023-02-17T14:25:14.284Z,96.64
2023-02-17T14:30:38.707Z,97.19
2023-02-17T14:36:01.426Z,97.36
2023-02-17T14:41:07.275Z,97.57
2023-02-17T14:46:12.287Z,97.53
2023-02-17T14:51:20.306Z,97.59
2023-02-17T14:56:37.565Z,97.48
2023-02-17T15:01:42.002Z,97.57
2023-02-17T15:06:53.295Z,97.42
2023-02-17T15:11:58.476Z,97.33
2023-02-17T15:17:03.212Z,97.41
2023-02-17T15:22:08.695Z,97.47
2023-02-17T15:27:17.761Z,97.35
2023-02-17T15:32:25.502Z,97.28
2023-02-17T15:37:30.016Z,97.64
2023-02-17T15:42:34.942Z,97.88
2023-02-17T15:47:39.600Z,97.96
2023-02-17T15:52:46.590Z,97.78
2023-02-17T15:57:58.786Z,97.70
2023-02-17T16:03:06.286Z,97.60
2023-02-17T16:08:15.907Z,97.53
2023-02-17T16:13:20.896Z,97.40
2023-02-17T16:18:28.063Z,97.26
2023-02-17T16:23:33.221Z,97.59
2023-02-17T16:28:37.387Z,98.20
2023-02-17T16:33:42.242Z,98.73
2023-02-17T16:38:54.419Z,99.43
2023-02-17T16:43:59.474Z,99.88
2023-02-17T16:49:36.978Z,99.99
2023-02-17T16:54:41.377Z,100.00
2023-02-17T16:59:47.674Z,100.00
2023-02-17T17:04:57.209Z,100.00
2023-02-17T17:10:57.740Z,100.00
2023-02-17T17:16:37.936Z,100.00
2023-02-17T17:21:54.714Z,100.00
2023-02-17T17:27:05.133Z,100.00
2023-02-17T17:32:16.588Z,100.00
2023-02-17T19:18:35.926Z,98.90
2023-02-17T19:23:42.364Z,99.08
2023-02-17T19:28:47.198Z,98.75
2023-02-17T19:33:54.334Z,98.56
2023-02-17T19:39:01.814Z,96.28
2023-02-17T19:44:50.354Z,94.97
2023-02-17T19:50:17.807Z,95.78
2023-02-17T19:55:28.732Z,95.23
2023-02-17T20:00:42.301Z,95.41
2023-02-17T20:05:56.273Z,95.32
2023-02-17T20:11:10.429Z,96.02
2023-02-17T20:16:27.451Z,96.38
2023-02-17T20:22:23.736Z,96.97
2023-02-17T20:27:32.966Z,96.73
2023-02-17T20:32:42.123Z,96.66
2023-02-17T20:37:56.042Z,96.49
2023-02-17T20:43:09.370Z,96.48
2023-02-17T20:48:28.666Z,96.50
2023-02-17T20:53:34.615Z,96.48
2023-02-17T20:58:40.431Z,96.76
2023-02-17T21:03:46.027Z,97.14
2023-02-17T21:08:52.875Z,97.43
2023-02-17T21:13:58.797Z,97.65
2023-02-17T21:19:04.906Z,97.41
2023-02-17T21:24:10.033Z,97.53
2023-02-17T21:29:14.834Z,97.88
2023-02-17T21:34:20.014Z,97.95
2023-02-17T21:39:24.762Z,97.59
2023-02-17T21:44:48.946Z,97.15
2023-02-17T21:49:55.259Z,96.85
2023-02-17T21:55:01.742Z,96.77
2023-02-17T22:00:07.184Z,96.91
2023-02-17T22:05:17.552Z,96.81
2023-02-17T22:10:21.497Z,97.88
2023-02-17T22:15:25.502Z,99.98
2023-02-17T22:20:29.324Z,98.71
2023-02-17T22:25:33.277Z,97.94
2023-02-17T22:30:37.261Z,98.20
2023-02-17T22:35:41.270Z,97.18
2023-02-17T22:40:45.257Z,94.83
2023-02-17T22:45:49.249Z,93.39
2023-02-17T22:50:53.314Z,91.66
2023-02-17T22:55:58.214Z,90.67
2023-02-17T23:01:09.347Z,88.92
2023-02-17T23:06:15.653Z,87.61
2023-02-17T23:11:42.790Z,84.55
2023-02-17T23:16:47.077Z,80.15
2023-02-17T23:21:54.029Z,77.32
2023-02-17T23:27:00.773Z,77.22
2023-02-17T23:32:05.392Z,78.07
2023-02-17T23:37:09.468Z,76.92
2023-02-17T23:42:13.366Z,76.28
2023-02-17T23:47:17.302Z,75.37
2023-02-17T23:52:21.425Z,79.16
2023-02-17T23:57:27.094Z,81.25
